sensor_id;sensor_type;location;lat;lon;timestamp;pressure;altitude;pressure_sealevel;temperature;humidity
62072;BME280;48031;48.542;13.232;2023-07-28T00:00:43;96692.34;;;23.90;53.48
62072;BME280;48031;48.542;13.232;2023-07-28T00:04:45;96703.31;;;23.87;54.14
62072;BME280;48031;48.542;13.232;2023-07-28T00:08:48;96709.38;;;23.37;56.04
62072;BME280;48031;48.542;13.232;2023-07-28T00:12:50;96699.19;;;23.81;55.25
62072;BME280;48031;48.542;13.232;2023-07-28T00:16:56;96692.34;;;23.90;55.63
62072;BME280;48031;48.542;13.232;2023-07-28T00:20:58;96695.50;;;23.77;55.80
62072;BME280;48031;48.542;13.232;2023-07-28T00:25:00;96697.38;;;23.45;57.03
62072;BME280;48031;48.542;13.232;2023-07-28T00:29:03;96694.28;;;22.94;57.69
62072;BME280;48031;48.542;13.232;2023-07-28T00:33:09;96686.00;;;23.62;55.96
62072;BME280;48031;48.542;13.232;2023-07-28T00:37:11;96682.19;;;23.82;55.43
62072;BME280;48031;48.542;13.232;2023-07-28T00:41:15;96686.56;;;23.68;55.58
62072;BME280;48031;48.542;13.232;2023-07-28T00:45:18;96688.22;;;23.84;55.37
62072;BME280;48031;48.542;13.232;2023-07-28T00:49:20;96678.84;;;22.93;56.58
62072;BME280;48031;48.542;13.232;2023-07-28T00:53:24;96683.50;;;23.57;55.65
62072;BME280;48031;48.542;13.232;2023-07-28T00:57:26;96681.56;;;24.32;53.38
62072;BME280;48031;48.542;13.232;2023-07-28T01:01:28;96685.25;;;23.77;54.18
62072;BME280;48031;48.542;13.232;2023-07-28T01:05:43;96678.50;;;23.35;55.95
62072;BME280;48031;48.542;13.232;2023-07-28T01:13:50;96671.94;;;23.27;55.34
62072;BME280;48031;48.542;13.232;2023-07-28T01:17:53;96668.47;;;23.58;55.66
62072;BME280;48031;48.542;13.232;2023-07-28T01:26:30;96664.38;;;23.40;55.70
62072;BME280;48031;48.542;13.232;2023-07-28T01:30:33;96654.63;;;22.90;56.87
62072;BME280;48031;48.542;13.232;2023-07-28T01:34:35;96658.28;;;23.06;56.36
62072;BME280;48031;48.542;13.232;2023-07-28T01:38:38;96650.94;;;23.54;55.39
62072;BME280;48031;48.542;13.232;2023-07-28T01:42:41;96644.28;;;24.02;53.80
62072;BME280;48031;48.542;13.232;2023-07-28T01:46:43;96648.59;;;24.47;52.35
62072;BME280;48031;48.542;13.232;2023-07-28T01:50:45;96654.16;;;23.99;53.87
62072;BME280;48031;48.542;13.232;2023-07-28T01:54:47;96656.88;;;23.68;54.58
62072;BME280;48031;48.542;13.232;2023-07-28T01:58:50;96649.13;;;23.18;56.25
62072;BME280;48031;48.542;13.232;2023-07-28T02:02:53;96641.41;;;23.51;54.97
62072;BME280;48031;48.542;13.232;2023-07-28T02:06:56;96642.78;;;23.45;55.02
62072;BME280;48031;48.542;13.232;2023-07-28T02:10:58;96649.06;;;24.33;52.59
62072;BME280;48031;48.542;13.232;2023-07-28T02:15:00;96643.66;;;24.56;51.67
62072;BME280;48031;48.542;13.232;2023-07-28T02:19:03;96641.72;;;24.25;52.52
62072;BME280;48031;48.542;13.232;2023-07-28T02:23:05;96655.69;;;24.13;53.09
62072;BME280;48031;48.542;13.232;2023-07-28T02:27:07;96652.72;;;24.06;52.87
62072;BME280;48031;48.542;13.232;2023-07-28T02:31:09;96656.88;;;23.68;54.80
62072;BME280;48031;48.542;13.232;2023-07-28T02:35:11;96647.16;;;23.90;53.16
62072;BME280;48031;48.542;13.232;2023-07-28T02:39:13;96658.88;;;23.99;53.21
62072;BME280;48031;48.542;13.232;2023-07-28T02:43:15;96657.56;;;23.49;55.72
62072;BME280;48031;48.542;13.232;2023-07-28T02:47:18;96652.06;;;22.97;57.03
62072;BME280;48031;48.542;13.232;2023-07-28T02:51:20;96656.00;;;23.24;55.16
62072;BME280;48031;48.542;13.232;2023-07-28T02:55:22;96659.81;;;23.19;55.20
62072;BME280;48031;48.542;13.232;2023-07-28T02:59:24;96672.66;;;22.72;56.70
62072;BME280;48031;48.542;13.232;2023-07-28T03:03:27;96670.19;;;23.35;54.32
62072;BME280;48031;48.542;13.232;2023-07-28T03:07:29;96675.03;;;23.26;54.20
62072;BME280;48031;48.542;13.232;2023-07-28T03:11:36;96678.28;;;22.75;55.82
62072;BME280;48031;48.542;13.232;2023-07-28T03:15:39;96684.38;;;22.69;56.54
62072;BME280;48031;48.542;13.232;2023-07-28T03:19:41;96690.34;;;21.98;58.49
62072;BME280;48031;48.542;13.232;2023-07-28T03:23:43;96680.22;;;22.99;56.54
62072;BME280;48031;48.542;13.232;2023-07-28T03:27:46;96672.50;;;22.80;56.54
62072;BME280;48031;48.542;13.232;2023-07-28T03:31:48;96675.06;;;22.37;58.09
62072;BME280;48031;48.542;13.232;2023-07-28T03:35:51;96676.09;;;21.75;59.82
62072;BME280;48031;48.542;13.232;2023-07-28T03:39:54;96678.06;;;21.75;60.41
62072;BME280;48031;48.542;13.232;2023-07-28T03:44:03;96676.06;;;22.93;57.26
62072;BME280;48031;48.542;13.232;2023-07-28T03:48:05;96666.13;;;23.04;56.36
62072;BME280;48031;48.542;13.232;2023-07-28T03:52:07;96678.28;;;22.39;57.33
62072;BME280;48031;48.542;13.232;2023-07-28T03:56:09;96674.44;;;21.29;61.17
62072;BME280;48031;48.542;13.232;2023-07-28T04:00:12;96673.19;;;21.60;61.48
62072;BME280;48031;48.542;13.232;2023-07-28T04:04:15;96679.94;;;23.16;56.92
62072;BME280;48031;48.542;13.232;2023-07-28T04:08:17;96687.25;;;22.36;58.58
62072;BME280;48031;48.542;13.232;2023-07-28T04:12:20;96695.63;;;23.12;56.92
62072;BME280;48031;48.542;13.232;2023-07-28T04:16:23;96688.72;;;23.06;57.13
62072;BME280;48031;48.542;13.232;2023-07-28T04:20:26;96699.34;;;24.47;53.17
62072;BME280;48031;48.542;13.232;2023-07-28T04:24:28;96689.03;;;24.16;54.04
62072;BME280;48031;48.542;13.232;2023-07-28T04:28:30;96690.16;;;23.84;54.89
62072;BME280;48031;48.542;13.232;2023-07-28T04:32:34;96685.69;;;23.24;56.57
62072;BME280;48031;48.542;13.232;2023-07-28T04:36:44;96698.47;;;22.39;58.12
62072;BME280;48031;48.542;13.232;2023-07-28T04:40:49;96689.00;;;22.40;58.91
62072;BME280;48031;48.542;13.232;2023-07-28T04:44:57;96697.56;;;22.72;58.59
62072;BME280;48031;48.542;13.232;2023-07-28T04:48:59;96691.31;;;22.26;59.84
62072;BME280;48031;48.542;13.232;2023-07-28T04:53:20;96686.47;;;22.11;60.05
62072;BME280;48031;48.542;13.232;2023-07-28T04:57:44;96667.09;;;22.84;59.11
62072;BME280;48031;48.542;13.232;2023-07-28T05:01:47;96665.06;;;23.49;56.66
62072;BME280;48031;48.542;13.232;2023-07-28T05:05:49;96666.44;;;23.43;57.30
62072;BME280;48031;48.542;13.232;2023-07-28T05:09:52;96674.00;;;23.58;56.65
62072;BME280;48031;48.542;13.232;2023-07-28T05:13:59;96671.19;;;24.80;54.39
62072;BME280;48031;48.542;13.232;2023-07-28T05:18:02;96674.50;;;23.76;56.74
62072;BME280;48031;48.542;13.232;2023-07-28T05:22:24;96659.06;;;24.53;54.48
62072;BME280;48031;48.542;13.232;2023-07-28T05:26:29;96656.97;;;24.66;54.30
62072;BME280;48031;48.542;13.232;2023-07-28T05:30:31;96664.00;;;24.44;54.45
62072;BME280;48031;48.542;13.232;2023-07-28T05:34:33;96662.97;;;25.18;52.96
62072;BME280;48031;48.542;13.232;2023-07-28T05:38:36;96661.41;;;25.59;51.85
62072;BME280;48031;48.542;13.232;2023-07-28T05:42:39;96672.34;;;26.59;48.67
62072;BME280;48031;48.542;13.232;2023-07-28T05:46:42;96666.06;;;26.88;48.28
62072;BME280;48031;48.542;13.232;2023-07-28T05:50:46;96685.91;;;26.87;48.79
62072;BME280;48031;48.542;13.232;2023-07-28T05:54:49;96672.31;;;27.68;46.78
62072;BME280;48031;48.542;13.232;2023-07-28T05:58:51;96682.06;;;27.21;47.75
62072;BME280;48031;48.542;13.232;2023-07-28T06:02:54;96697.19;;;26.94;48.63
62072;BME280;48031;48.542;13.232;2023-07-28T06:07:23;96684.59;;;26.77;48.04
62072;BME280;48031;48.542;13.232;2023-07-28T06:11:25;96690.25;;;26.13;49.34
62072;BME280;48031;48.542;13.232;2023-07-28T06:15:29;96693.16;;;25.97;47.55
62072;BME280;48031;48.542;13.232;2023-07-28T06:19:31;96699.06;;;25.38;49.77
62072;BME280;48031;48.542;13.232;2023-07-28T06:23:33;96695.41;;;26.82;45.99
62072;BME280;48031;48.542;13.232;2023-07-28T06:27:37;96701.47;;;26.39;45.65
62072;BME280;48031;48.542;13.232;2023-07-28T06:31:41;96708.09;;;25.70;46.78
62072;BME280;48031;48.542;13.232;2023-07-28T06:35:43;96714.03;;;26.10;46.31
62072;BME280;48031;48.542;13.232;2023-07-28T06:39:45;96718.09;;;26.58;45.58
62072;BME280;48031;48.542;13.232;2023-07-28T06:43:48;96718.75;;;26.74;45.08
62072;BME280;48031;48.542;13.232;2023-07-28T06:47:53;96727.13;;;27.27;44.42
62072;BME280;48031;48.542;13.232;2023-07-28T06:51:55;96737.69;;;27.14;44.94
62072;BME280;48031;48.542;13.232;2023-07-28T06:55:57;96739.34;;;28.08;43.39
62072;BME280;48031;48.542;13.232;2023-07-28T07:00:00;96733.97;;;27.33;43.63
62072;BME280;48031;48.542;13.232;2023-07-28T07:04:04;96748.25;;;27.28;45.16
62072;BME280;48031;48.542;13.232;2023-07-28T07:08:07;96749.88;;;26.80;45.86
62072;BME280;48031;48.542;13.232;2023-07-28T07:12:09;96738.66;;;27.85;44.57
62072;BME280;48031;48.542;13.232;2023-07-28T07:16:17;96750.19;;;27.24;46.04
62072;BME280;48031;48.542;13.232;2023-07-28T07:20:25;96743.94;;;27.60;44.46
62072;BME280;48031;48.542;13.232;2023-07-28T07:24:28;96759.25;;;27.17;45.51
62072;BME280;48031;48.542;13.232;2023-07-28T07:28:30;96750.19;;;27.24;45.21
62072;BME280;48031;48.542;13.232;2023-07-28T07:32:33;96763.31;;;27.80;43.83
62072;BME280;48031;48.542;13.232;2023-07-28T07:36:35;96754.72;;;27.62;43.49
62072;BME280;48031;48.542;13.232;2023-07-28T07:40:37;96750.22;;;27.87;43.62
62072;BME280;48031;48.542;13.232;2023-07-28T07:44:41;96750.97;;;27.81;43.41
62072;BME280;48031;48.542;13.232;2023-07-28T07:48:43;96755.38;;;28.15;43.57
62072;BME280;48031;48.542;13.232;2023-07-28T07:52:45;96768.00;;;27.72;44.22
62072;BME280;48031;48.542;13.232;2023-07-28T07:56:47;96777.78;;;27.92;44.24
62072;BME280;48031;48.542;13.232;2023-07-28T08:00:49;96779.34;;;27.56;44.48
62072;BME280;48031;48.542;13.232;2023-07-28T08:04:52;96781.59;;;28.10;44.56
62072;BME280;48031;48.542;13.232;2023-07-28T08:08:54;96793.44;;;27.41;46.45
62072;BME280;48031;48.542;13.232;2023-07-28T08:12:58;96777.16;;;28.39;44.77
62072;BME280;48031;48.542;13.232;2023-07-28T08:17:01;96780.13;;;30.35;39.97
62072;BME280;48031;48.542;13.232;2023-07-28T08:21:04;96780.84;;;28.87;42.60
62072;BME280;48031;48.542;13.232;2023-07-28T08:25:06;96775.63;;;28.45;43.98
62072;BME280;48031;48.542;13.232;2023-07-28T08:29:08;96777.94;;;29.28;41.56
62072;BME280;48031;48.542;13.232;2023-07-28T08:33:10;96779.66;;;29.43;40.98
62072;BME280;48031;48.542;13.232;2023-07-28T08:37:12;96770.94;;;30.45;38.21
62072;BME280;48031;48.542;13.232;2023-07-28T08:41:15;96777.38;;;30.71;38.55
62072;BME280;48031;48.542;13.232;2023-07-28T08:45:18;96774.94;;;29.54;41.17
62072;BME280;48031;48.542;13.232;2023-07-28T08:49:21;96783.00;;;30.71;39.70
62072;BME280;48031;48.542;13.232;2023-07-28T08:53:23;96759.69;;;30.24;38.69
62072;BME280;48031;48.542;13.232;2023-07-28T08:57:25;96774.91;;;30.37;38.88
62072;BME280;48031;48.542;13.232;2023-07-28T09:01:27;96770.22;;;30.70;38.29
62072;BME280;48031;48.542;13.232;2023-07-28T09:05:33;96769.38;;;31.65;36.52
62072;BME280;48031;48.542;13.232;2023-07-28T09:09:36;96781.66;;;32.83;34.54
62072;BME280;48031;48.542;13.232;2023-07-28T09:13:40;96779.34;;;30.45;38.86
62072;BME280;48031;48.542;13.232;2023-07-28T09:17:46;96760.69;;;32.29;35.90
62072;BME280;48031;48.542;13.232;2023-07-28T09:21:58;96783.66;;;30.18;39.96
62072;BME280;48031;48.542;13.232;2023-07-28T09:26:01;96775.41;;;29.63;41.14
62072;BME280;48031;48.542;13.232;2023-07-28T09:30:08;96775.22;;;30.07;40.88
62072;BME280;48031;48.542;13.232;2023-07-28T09:34:11;96789.50;;;29.88;40.72
62072;BME280;48031;48.542;13.232;2023-07-28T09:38:14;96784.78;;;29.92;40.76
62072;BME280;48031;48.542;13.232;2023-07-28T09:42:17;96789.72;;;28.97;42.55
62072;BME280;48031;48.542;13.232;2023-07-28T09:46:20;96792.50;;;28.97;42.66
62072;BME280;48031;48.542;13.232;2023-07-28T09:50:24;96786.94;;;29.00;42.05
62072;BME280;48031;48.542;13.232;2023-07-28T09:54:29;96783.63;;;28.47;43.90
62072;BME280;48031;48.542;13.232;2023-07-28T09:58:33;96786.69;;;28.35;44.59
62072;BME280;48031;48.542;13.232;2023-07-28T10:02:39;96791.44;;;28.71;44.17
62072;BME280;48031;48.542;13.232;2023-07-28T10:06:41;97112.19;;;20.10;100.00
62072;BME280;48031;48.542;13.232;2023-07-28T10:10:44;97436.56;;;22.41;100.00
62072;BME280;48031;48.542;13.232;2023-07-28T10:15:00;96963.31;;;25.17;100.00
62072;BME280;48031;48.542;13.232;2023-07-28T10:19:02;96949.81;;;25.62;100.00
62072;BME280;48031;48.542;13.232;2023-07-28T10:27:34;96925.34;;;28.24;100.00
62072;BME280;48031;48.542;13.232;2023-07-28T10:31:52;96926.50;;;29.70;100.00
62072;BME280;48031;48.542;13.232;2023-07-28T10:35:55;96925.72;;;28.85;100.00
62072;BME280;48031;48.542;13.232;2023-07-28T10:40:32;96925.72;;;28.85;100.00
62072;BME280;48031;48.542;13.232;2023-07-28T10:44:37;96925.72;;;28.85;100.00
62072;BME280;48031;48.542;13.232;2023-07-28T10:48:44;61634.44;;;-142.07;100.00
62072;BME280;48031;48.542;13.232;2023-07-28T10:52:47;61634.44;;;-142.07;100.00
62072;BME280;48031;48.542;13.232;2023-07-28T10:56:49;61634.44;;;-142.07;100.00
62072;BME280;48031;48.542;13.232;2023-07-28T11:00:51;61634.44;;;-142.07;100.00
62072;BME280;48031;48.542;13.232;2023-07-28T11:04:56;61634.44;;;-142.07;100.00
62072;BME280;48031;48.542;13.232;2023-07-28T11:08:58;61634.44;;;-142.07;100.00
62072;BME280;48031;48.542;13.232;2023-07-28T11:13:02;61634.44;;;-142.07;100.00
62072;BME280;48031;48.542;13.232;2023-07-28T11:17:22;61634.44;;;-142.07;100.00
62072;BME280;48031;48.542;13.232;2023-07-28T11:21:26;61634.44;;;-142.07;100.00
62072;BME280;48031;48.542;13.232;2023-07-28T11:25:30;61634.44;;;-142.07;100.00
62072;BME280;48031;48.542;13.232;2023-07-28T11:29:33;61634.44;;;-142.07;100.00
62072;BME280;48031;48.542;13.232;2023-07-28T11:33:35;61634.44;;;-142.07;100.00
62072;BME280;48031;48.542;13.232;2023-07-28T11:37:38;61634.44;;;-142.07;100.00
62072;BME280;48031;48.542;13.232;2023-07-28T11:41:41;61634.44;;;-142.07;100.00
62072;BME280;48031;48.542;13.232;2023-07-28T11:45:45;61634.44;;;-142.07;100.00
62072;BME280;48031;48.542;13.232;2023-07-28T11:49:48;61634.44;;;-142.07;100.00
62072;BME280;48031;48.542;13.232;2023-07-28T11:53:50;61634.44;;;-142.07;100.00
62072;BME280;48031;48.542;13.232;2023-07-28T11:57:52;61634.44;;;-142.07;100.00
62072;BME280;48031;48.542;13.232;2023-07-28T12:01:56;61634.44;;;-142.07;100.00
62072;BME280;48031;48.542;13.232;2023-07-28T12:06:05;61634.44;;;-142.07;100.00
62072;BME280;48031;48.542;13.232;2023-07-28T12:10:11;61634.44;;;-142.07;100.00
62072;BME280;48031;48.542;13.232;2023-07-28T12:14:15;61634.44;;;-142.07;100.00
62072;BME280;48031;48.542;13.232;2023-07-28T12:18:20;61634.44;;;-142.07;100.00
62072;BME280;48031;48.542;13.232;2023-07-28T12:22:28;61634.44;;;-142.07;100.00
62072;BME280;48031;48.542;13.232;2023-07-28T12:26:30;61634.44;;;-142.07;100.00
62072;BME280;48031;48.542;13.232;2023-07-28T12:30:33;61634.44;;;-142.07;100.00
62072;BME280;48031;48.542;13.232;2023-07-28T12:34:35;61634.44;;;-142.07;100.00
62072;BME280;48031;48.542;13.232;2023-07-28T12:38:52;61634.44;;;-142.07;100.00
62072;BME280;48031;48.542;13.232;2023-07-28T12:42:56;61634.44;;;-142.07;100.00
62072;BME280;48031;48.542;13.232;2023-07-28T12:47:02;61634.44;;;-142.07;100.00
62072;BME280;48031;48.542;13.232;2023-07-28T12:51:08;61634.44;;;-142.07;100.00
62072;BME280;48031;48.542;13.232;2023-07-28T12:55:10;61634.44;;;-142.07;100.00
62072;BME280;48031;48.542;13.232;2023-07-28T12:59:33;61634.44;;;-142.07;100.00
62072;BME280;48031;48.542;13.232;2023-07-28T13:03:35;61634.44;;;-142.07;100.00
62072;BME280;48031;48.542;13.232;2023-07-28T13:07:38;61634.44;;;-142.07;100.00
62072;BME280;48031;48.542;13.232;2023-07-28T13:11:43;61634.44;;;-142.07;100.00
62072;BME280;48031;48.542;13.232;2023-07-28T13:15:49;61634.44;;;-142.07;100.00
62072;BME280;48031;48.542;13.232;2023-07-28T13:19:51;61634.44;;;-142.07;100.00
62072;BME280;48031;48.542;13.232;2023-07-28T13:23:53;61634.44;;;-142.07;100.00
62072;BME280;48031;48.542;13.232;2023-07-28T13:27:55;61634.44;;;-142.07;100.00
62072;BME280;48031;48.542;13.232;2023-07-28T13:31:59;61634.44;;;-142.07;100.00
62072;BME280;48031;48.542;13.232;2023-07-28T13:36:04;61634.44;;;-142.07;100.00
62072;BME280;48031;48.542;13.232;2023-07-28T13:40:10;61634.44;;;-142.07;100.00
62072;BME280;48031;48.542;13.232;2023-07-28T13:44:15;61634.44;;;-142.07;100.00
62072;BME280;48031;48.542;13.232;2023-07-28T13:48:17;61634.44;;;-142.07;100.00
62072;BME280;48031;48.542;13.232;2023-07-28T13:52:22;61634.44;;;-142.07;100.00
62072;BME280;48031;48.542;13.232;2023-07-28T13:56:24;61634.44;;;-142.07;100.00
62072;BME280;48031;48.542;13.232;2023-07-28T14:00:27;61634.44;;;-142.07;100.00
62072;BME280;48031;48.542;13.232;2023-07-28T14:04:28;61634.44;;;-142.07;100.00
62072;BME280;48031;48.542;13.232;2023-07-28T14:08:33;61634.44;;;-142.07;100.00
62072;BME280;48031;48.542;13.232;2023-07-28T14:12:34;61634.44;;;-142.07;100.00
62072;BME280;48031;48.542;13.232;2023-07-28T14:16:37;61634.44;;;-142.07;100.00
62072;BME280;48031;48.542;13.232;2023-07-28T14:20:39;61634.44;;;-142.07;100.00
62072;BME280;48031;48.542;13.232;2023-07-28T14:24:41;61634.44;;;-142.07;100.00
62072;BME280;48031;48.542;13.232;2023-07-28T14:28:44;61634.44;;;-142.07;100.00
62072;BME280;48031;48.542;13.232;2023-07-28T14:32:45;61634.44;;;-142.07;100.00
62072;BME280;48031;48.542;13.232;2023-07-28T14:36:47;61634.44;;;-142.07;100.00
62072;BME280;48031;48.542;13.232;2023-07-28T14:40:50;61634.44;;;-142.07;100.00
62072;BME280;48031;48.542;13.232;2023-07-28T14:44:54;61634.44;;;-142.07;100.00
62072;BME280;48031;48.542;13.232;2023-07-28T14:48:56;61634.44;;;-142.07;100.00
62072;BME280;48031;48.542;13.232;2023-07-28T14:52:59;61634.44;;;-142.07;100.00
62072;BME280;48031;48.542;13.232;2023-07-28T14:57:04;61634.44;;;-142.07;100.00
62072;BME280;48031;48.542;13.232;2023-07-28T15:01:06;61634.44;;;-142.07;100.00
62072;BME280;48031;48.542;13.232;2023-07-28T15:05:09;61634.44;;;-142.07;100.00
62072;BME280;48031;48.542;13.232;2023-07-28T15:09:11;61634.44;;;-142.07;100.00
62072;BME280;48031;48.542;13.232;2023-07-28T15:13:13;61634.44;;;-142.07;100.00
62072;BME280;48031;48.542;13.232;2023-07-28T15:17:17;61634.44;;;-142.07;100.00
62072;BME280;48031;48.542;13.232;2023-07-28T15:21:19;61634.44;;;-142.07;100.00
62072;BME280;48031;48.542;13.232;2023-07-28T15:25:21;61634.44;;;-142.07;100.00
62072;BME280;48031;48.542;13.232;2023-07-28T15:29:23;61634.44;;;-142.07;100.00
62072;BME280;48031;48.542;13.232;2023-07-28T15:33:26;61634.44;;;-142.07;100.00
62072;BME280;48031;48.542;13.232;2023-07-28T15:37:30;61634.44;;;-142.07;100.00
62072;BME280;48031;48.542;13.232;2023-07-28T15:41:33;61634.44;;;-142.07;100.00
62072;BME280;48031;48.542;13.232;2023-07-28T15:45:36;61634.44;;;-142.07;100.00
62072;BME280;48031;48.542;13.232;2023-07-28T15:49:38;61634.44;;;-142.07;100.00
62072;BME280;48031;48.542;13.232;2023-07-28T15:53:40;61634.44;;;-142.07;100.00
62072;BME280;48031;48.542;13.232;2023-07-28T15:57:42;61634.44;;;-142.07;100.00
62072;BME280;48031;48.542;13.232;2023-07-28T16:01:44;61634.44;;;-142.07;100.00
62072;BME280;48031;48.542;13.232;2023-07-28T16:05:46;61634.44;;;-142.07;100.00
62072;BME280;48031;48.542;13.232;2023-07-28T16:09:48;61634.44;;;-142.07;100.00
62072;BME280;48031;48.542;13.232;2023-07-28T16:13:52;61634.44;;;-142.07;100.00
62072;BME280;48031;48.542;13.232;2023-07-28T16:17:54;61634.44;;;-142.07;100.00
62072;BME280;48031;48.542;13.232;2023-07-28T16:21:56;61634.44;;;-142.07;100.00
62072;BME280;48031;48.542;13.232;2023-07-28T16:26:00;61634.44;;;-142.07;100.00
62072;BME280;48031;48.542;13.232;2023-07-28T16:30:05;61634.44;;;-142.07;100.00
62072;BME280;48031;48.542;13.232;2023-07-28T16:34:07;61634.44;;;-142.07;100.00
62072;BME280;48031;48.542;13.232;2023-07-28T16:38:09;61634.44;;;-142.07;100.00
62072;BME280;48031;48.542;13.232;2023-07-28T16:42:12;61634.44;;;-142.07;100.00
62072;BME280;48031;48.542;13.232;2023-07-28T16:46:14;61634.44;;;-142.07;100.00
62072;BME280;48031;48.542;13.232;2023-07-28T16:50:16;61634.44;;;-142.07;100.00
62072;BME280;48031;48.542;13.232;2023-07-28T16:54:18;61634.44;;;-142.07;100.00
62072;BME280;48031;48.542;13.232;2023-07-28T16:58:23;61634.44;;;-142.07;100.00
62072;BME280;48031;48.542;13.232;2023-07-28T17:02:26;61634.44;;;-142.07;100.00
62072;BME280;48031;48.542;13.232;2023-07-28T17:06:28;61634.44;;;-142.07;100.00
62072;BME280;48031;48.542;13.232;2023-07-28T17:10:31;61634.44;;;-142.07;100.00
62072;BME280;48031;48.542;13.232;2023-07-28T17:14:33;61634.44;;;-142.07;100.00
62072;BME280;48031;48.542;13.232;2023-07-28T17:18:35;61634.44;;;-142.07;100.00
62072;BME280;48031;48.542;13.232;2023-07-28T17:22:37;61634.44;;;-142.07;100.00
62072;BME280;48031;48.542;13.232;2023-07-28T17:26:39;61634.44;;;-142.07;100.00
62072;BME280;48031;48.542;13.232;2023-07-28T17:30:42;61634.44;;;-142.07;100.00
62072;BME280;48031;48.542;13.232;2023-07-28T17:34:43;61634.44;;;-142.07;100.00
62072;BME280;48031;48.542;13.232;2023-07-28T17:38:45;61634.44;;;-142.07;100.00
62072;BME280;48031;48.542;13.232;2023-07-28T17:42:48;61634.44;;;-142.07;100.00
62072;BME280;48031;48.542;13.232;2023-07-28T17:46:50;61634.44;;;-142.07;100.00
62072;BME280;48031;48.542;13.232;2023-07-28T17:50:53;61634.44;;;-142.07;100.00
62072;BME280;48031;48.542;13.232;2023-07-28T17:54:55;61634.44;;;-142.07;100.00
62072;BME280;48031;48.542;13.232;2023-07-28T17:58:57;61634.44;;;-142.07;100.00
62072;BME280;48031;48.542;13.232;2023-07-28T18:02:59;61634.44;;;-142.07;100.00
62072;BME280;48031;48.542;13.232;2023-07-28T18:07:01;61634.44;;;-142.07;100.00
62072;BME280;48031;48.542;13.232;2023-07-28T18:11:03;61634.44;;;-142.07;100.00
62072;BME280;48031;48.542;13.232;2023-07-28T18:15:06;61634.44;;;-142.07;100.00
62072;BME280;48031;48.542;13.232;2023-07-28T18:19:08;61634.44;;;-142.07;100.00
62072;BME280;48031;48.542;13.232;2023-07-28T18:23:11;61634.44;;;-142.07;100.00
62072;BME280;48031;48.542;13.232;2023-07-28T18:27:13;61634.44;;;-142.07;100.00
62072;BME280;48031;48.542;13.232;2023-07-28T18:31:15;61634.44;;;-142.07;100.00
62072;BME280;48031;48.542;13.232;2023-07-28T18:35:17;61634.44;;;-142.07;100.00
62072;BME280;48031;48.542;13.232;2023-07-28T18:39:19;61634.44;;;-142.07;100.00
62072;BME280;48031;48.542;13.232;2023-07-28T18:43:21;61634.44;;;-142.07;100.00
62072;BME280;48031;48.542;13.232;2023-07-28T18:47:24;61634.44;;;-142.07;100.00
62072;BME280;48031;48.542;13.232;2023-07-28T18:51:27;61634.44;;;-142.07;100.00
62072;BME280;48031;48.542;13.232;2023-07-28T18:55:33;61634.44;;;-142.07;100.00
62072;BME280;48031;48.542;13.232;2023-07-28T18:59:35;61634.44;;;-142.07;100.00
62072;BME280;48031;48.542;13.232;2023-07-28T19:03:37;61634.44;;;-142.07;100.00
62072;BME280;48031;48.542;13.232;2023-07-28T19:07:40;61634.44;;;-142.07;100.00
62072;BME280;48031;48.542;13.232;2023-07-28T19:11:42;61634.44;;;-142.07;100.00
62072;BME280;48031;48.542;13.232;2023-07-28T19:15:45;61634.44;;;-142.07;100.00
62072;BME280;48031;48.542;13.232;2023-07-28T19:19:49;61634.44;;;-142.07;100.00
62072;BME280;48031;48.542;13.232;2023-07-28T19:23:51;61634.44;;;-142.07;100.00
62072;BME280;48031;48.542;13.232;2023-07-28T19:27:54;61634.44;;;-142.07;100.00
62072;BME280;48031;48.542;13.232;2023-07-28T19:31:56;61634.44;;;-142.07;100.00
62072;BME280;48031;48.542;13.232;2023-07-28T19:35:58;61634.44;;;-142.07;100.00
62072;BME280;48031;48.542;13.232;2023-07-28T19:40:02;61634.44;;;-142.07;100.00
62072;BME280;48031;48.542;13.232;2023-07-28T19:44:05;61634.44;;;-142.07;100.00
62072;BME280;48031;48.542;13.232;2023-07-28T19:48:06;61634.44;;;-142.07;100.00
62072;BME280;48031;48.542;13.232;2023-07-28T19:52:08;61634.44;;;-142.07;100.00
62072;BME280;48031;48.542;13.232;2023-07-28T19:56:10;61634.44;;;-142.07;100.00
62072;BME280;48031;48.542;13.232;2023-07-28T20:00:12;61634.44;;;-142.07;100.00
62072;BME280;48031;48.542;13.232;2023-07-28T20:04:14;61634.44;;;-142.07;100.00
62072;BME280;48031;48.542;13.232;2023-07-28T20:08:17;61634.44;;;-142.07;100.00
62072;BME280;48031;48.542;13.232;2023-07-28T20:12:19;61634.44;;;-142.07;100.00
62072;BME280;48031;48.542;13.232;2023-07-28T20:16:24;61634.44;;;-142.07;100.00
62072;BME280;48031;48.542;13.232;2023-07-28T20:20:27;61634.44;;;-142.07;100.00
62072;BME280;48031;48.542;13.232;2023-07-28T20:24:29;61634.44;;;-142.07;100.00
62072;BME280;48031;48.542;13.232;2023-07-28T20:28:31;61634.44;;;-142.07;100.00
62072;BME280;48031;48.542;13.232;2023-07-28T20:32:34;61634.44;;;-142.07;100.00
62072;BME280;48031;48.542;13.232;2023-07-28T20:36:36;61634.44;;;-142.07;100.00
62072;BME280;48031;48.542;13.232;2023-07-28T20:40:39;61634.44;;;-142.07;100.00
62072;BME280;48031;48.542;13.232;2023-07-28T20:44:42;61634.44;;;-142.07;100.00
62072;BME280;48031;48.542;13.232;2023-07-28T20:48:43;61634.44;;;-142.07;100.00
62072;BME280;48031;48.542;13.232;2023-07-28T20:52:46;61634.44;;;-142.07;100.00
62072;BME280;48031;48.542;13.232;2023-07-28T20:56:48;61634.44;;;-142.07;100.00
62072;BME280;48031;48.542;13.232;2023-07-28T21:00:51;61634.44;;;-142.07;100.00